sensor_id;sensor_type;location;lat;lon;timestamp;pressure;altitude;pressure_sealevel;temperature;humidity
498;BME280;39559;48.630;9.162;2023-02-11T00:00:53;99491.25;;;-6.12;100.00
498;BME280;39559;48.630;9.162;2023-02-11T00:03:19;99496.94;;;-6.16;100.00
498;BME280;39559;48.630;9.162;2023-02-11T00:07:53;99496.69;;;-5.90;100.00
498;BME280;39559;48.630;9.162;2023-02-11T00:10:18;99497.47;;;-5.91;100.00
498;BME280;39559;48.630;9.162;2023-02-11T00:12:43;99499.97;;;-6.07;100.00
498;BME280;39559;48.630;9.162;2023-02-11T00:15:09;99503.91;;;-6.12;100.00
498;BME280;39559;48.630;9.162;2023-02-11T00:17:35;99499.47;;;-6.31;100.00
498;BME280;39559;48.630;9.162;2023-02-11T00:20:00;99495.63;;;-6.25;100.00
498;BME280;39559;48.630;9.162;2023-02-11T00:22:26;99496.75;;;-6.49;100.00
498;BME280;39559;48.630;9.162;2023-02-11T00:24:52;99503.47;;;-6.50;100.00
498;BME280;39559;48.630;9.162;2023-02-11T00:27:17;99496.06;;;-6.47;100.00
498;BME280;39559;48.630;9.162;2023-02-11T00:31:55;99499.22;;;-6.36;100.00
498;BME280;39559;48.630;9.162;2023-02-11T00:34:21;99498.84;;;-6.42;100.00
498;BME280;39559;48.630;9.162;2023-02-11T00:36:47;99503.47;;;-6.35;100.00
498;BME280;39559;48.630;9.162;2023-02-11T00:39:14;99502.34;;;-6.25;100.00
498;BME280;39559;48.630;9.162;2023-02-11T00:41:40;99499.63;;;-6.28;100.00
498;BME280;39559;48.630;9.162;2023-02-11T00:44:05;99492.31;;;-6.53;100.00
498;BME280;39559;48.630;9.162;2023-02-11T00:46:31;99489.09;;;-6.36;100.00
498;BME280;39559;48.630;9.162;2023-02-11T00:48:57;99482.13;;;-6.40;100.00
498;BME280;39559;48.630;9.162;2023-02-11T00:51:24;99473.75;;;-6.39;100.00
498;BME280;39559;48.630;9.162;2023-02-11T00:55:58;99467.84;;;-6.40;100.00
498;BME280;39559;48.630;9.162;2023-02-11T00:58:25;99468.25;;;-6.32;100.00
498;BME280;39559;48.630;9.162;2023-02-11T01:00:52;99469.81;;;-6.19;100.00
498;BME280;39559;48.630;9.162;2023-02-11T01:03:17;99468.00;;;-6.22;100.00
498;BME280;39559;48.630;9.162;2023-02-11T01:05:43;99476.03;;;-6.29;100.00
498;BME280;39559;48.630;9.162;2023-02-11T01:08:08;99479.19;;;-6.33;100.00
498;BME280;39559;48.630;9.162;2023-02-11T01:10:34;99478.03;;;-6.38;100.00
498;BME280;39559;48.630;9.162;2023-02-11T01:13:02;99474.72;;;-6.37;100.00
498;BME280;39559;48.630;9.162;2023-02-11T01:15:29;99479.19;;;-6.33;100.00
498;BME280;39559;48.630;9.162;2023-02-11T01:20:07;99472.19;;;-6.67;100.00
498;BME280;39559;48.630;9.162;2023-02-11T01:22:35;99459.31;;;-6.57;100.00
498;BME280;39559;48.630;9.162;2023-02-11T01:25:05;99464.44;;;-6.40;100.00
498;BME280;39559;48.630;9.162;2023-02-11T01:27:31;99460.50;;;-6.35;100.00
498;BME280;39559;48.630;9.162;2023-02-11T01:29:57;99456.16;;;-6.38;100.00
498;BME280;39559;48.630;9.162;2023-02-11T01:32:22;99455.81;;;-6.44;100.00
498;BME280;39559;48.630;9.162;2023-02-11T01:34:48;99441.50;;;-6.43;100.00
498;BME280;39559;48.630;9.162;2023-02-11T01:37:14;99445.59;;;-6.30;100.00
498;BME280;39559;48.630;9.162;2023-02-11T01:39:40;99438.63;;;-6.34;100.00
498;BME280;39559;48.630;9.162;2023-02-11T01:44:42;99443.59;;;-6.36;100.00
498;BME280;39559;48.630;9.162;2023-02-11T01:47:08;99435.31;;;-6.48;100.00
498;BME280;39559;48.630;9.162;2023-02-11T01:49:56;99437.66;;;-6.51;100.00
498;BME280;39559;48.630;9.162;2023-02-11T01:52:35;99433.22;;;-6.56;100.00
498;BME280;39559;48.630;9.162;2023-02-11T01:55:07;99431.06;;;-6.79;100.00
498;BME280;39559;48.630;9.162;2023-02-11T01:57:53;99422.63;;;-6.80;100.00
498;BME280;39559;48.630;9.162;2023-02-11T02:03:16;99417.75;;;-6.77;100.00
498;BME280;39559;48.630;9.162;2023-02-11T02:08:53;99424.09;;;-6.68;100.00
498;BME280;39559;48.630;9.162;2023-02-11T02:10:58;99419.28;;;-6.79;100.00
498;BME280;39559;48.630;9.162;2023-02-11T02:13:26;99410.13;;;-6.91;100.00
498;BME280;39559;48.630;9.162;2023-02-11T02:16:01;99405.78;;;-6.94;100.00
498;BME280;39559;48.630;9.162;2023-02-11T02:21:25;99408.94;;;-6.68;100.00
498;BME280;39559;48.630;9.162;2023-02-11T02:24:09;99412.25;;;-6.54;100.00
498;BME280;39559;48.630;9.162;2023-02-11T02:32:26;99401.44;;;-6.82;100.00
498;BME280;39559;48.630;9.162;2023-02-11T02:37:40;99402.66;;;-6.45;100.00
498;BME280;39559;48.630;9.162;2023-02-11T02:40:15;99400.28;;;-6.42;100.00
498;BME280;39559;48.630;9.162;2023-02-11T02:42:42;99401.59;;;-6.49;100.00
498;BME280;39559;48.630;9.162;2023-02-11T02:45:10;99393.00;;;-6.67;100.00
498;BME280;39559;48.630;9.162;2023-02-11T02:47:36;99392.97;;;-6.82;100.00
498;BME280;39559;48.630;9.162;2023-02-11T02:50:03;99384.88;;;-6.62;100.00
498;BME280;39559;48.630;9.162;2023-02-11T02:56:35;99377.25;;;-6.32;100.00
498;BME280;39559;48.630;9.162;2023-02-11T03:04:50;99382.88;;;-6.52;100.00
498;BME280;39559;48.630;9.162;2023-02-11T03:10:04;99375.81;;;-6.88;100.00
498;BME280;39559;48.630;9.162;2023-02-11T03:12:32;99377.59;;;-6.87;100.00
498;BME280;39559;48.630;9.162;2023-02-11T03:15:00;99380.00;;;-6.73;100.00
498;BME280;39559;48.630;9.162;2023-02-11T03:17:27;99374.34;;;-6.69;100.00
498;BME280;39559;48.630;9.162;2023-02-11T03:20:18;99366.84;;;-6.68;100.00
498;BME280;39559;48.630;9.162;2023-02-11T03:22:49;99358.69;;;-6.64;100.00
498;BME280;39559;48.630;9.162;2023-02-11T03:25:18;99354.72;;;-6.44;100.00
498;BME280;39559;48.630;9.162;2023-02-11T03:27:50;99355.34;;;-6.31;100.00
498;BME280;39559;48.630;9.162;2023-02-11T03:30:55;99362.50;;;-6.24;100.00
498;BME280;39559;48.630;9.162;2023-02-11T03:33:27;99365.31;;;-6.34;100.00
498;BME280;39559;48.630;9.162;2023-02-11T03:35:58;99370.03;;;-6.41;100.00
498;BME280;39559;48.630;9.162;2023-02-11T03:38:30;99372.75;;;-6.52;100.00
498;BME280;39559;48.630;9.162;2023-02-11T03:40:58;99364.81;;;-6.59;100.00
498;BME280;39559;48.630;9.162;2023-02-11T03:44:20;99368.09;;;-6.76;100.00
498;BME280;39559;48.630;9.162;2023-02-11T03:46:49;99371.66;;;-6.87;100.00
498;BME280;39559;48.630;9.162;2023-02-11T03:49:17;99364.78;;;-6.90;100.00
498;BME280;39559;48.630;9.162;2023-02-11T03:51:45;99369.38;;;-6.83;100.00
498;BME280;39559;48.630;9.162;2023-02-11T03:54:15;99368.19;;;-6.74;100.00
498;BME280;39559;48.630;9.162;2023-02-11T03:56:52;99360.13;;;-6.52;100.00
498;BME280;39559;48.630;9.162;2023-02-11T03:59:18;99358.78;;;-6.46;100.00
498;BME280;39559;48.630;9.162;2023-02-11T04:01:43;99356.78;;;-6.37;100.00
498;BME280;39559;48.630;9.162;2023-02-11T04:04:10;99359.31;;;-6.05;100.00
498;BME280;39559;48.630;9.162;2023-02-11T04:08:23;99370.00;;;-6.26;100.00
498;BME280;39559;48.630;9.162;2023-02-11T04:10:48;99381.97;;;-6.38;100.00
498;BME280;39559;48.630;9.162;2023-02-11T04:13:14;99380.69;;;-6.61;100.00
498;BME280;39559;48.630;9.162;2023-02-11T04:15:40;99373.31;;;-7.03;100.00
498;BME280;39559;48.630;9.162;2023-02-11T04:18:05;99367.03;;;-7.09;100.00
498;BME280;39559;48.630;9.162;2023-02-11T04:20:31;99356.16;;;-6.93;100.00
498;BME280;39559;48.630;9.162;2023-02-11T04:22:57;99365.50;;;-6.46;100.00
498;BME280;39559;48.630;9.162;2023-02-11T04:25:23;99373.59;;;-6.37;100.00
498;BME280;39559;48.630;9.162;2023-02-11T04:27:50;99378.91;;;-6.32;100.00
498;BME280;39559;48.630;9.162;2023-02-11T04:32:27;99385.38;;;-6.38;100.00
498;BME280;39559;48.630;9.162;2023-02-11T04:34:53;99389.72;;;-6.35;100.00
498;BME280;39559;48.630;9.162;2023-02-11T04:37:29;99383.47;;;-6.42;100.00
498;BME280;39559;48.630;9.162;2023-02-11T04:39:55;99395.84;;;-6.46;100.00
498;BME280;39559;48.630;9.162;2023-02-11T04:42:21;99379.81;;;-6.47;100.00
498;BME280;39559;48.630;9.162;2023-02-11T04:44:47;99381.56;;;-6.14;100.00
498;BME280;39559;48.630;9.162;2023-02-11T04:47:16;99384.06;;;-6.00;100.00
498;BME280;39559;48.630;9.162;2023-02-11T04:49:44;99390.22;;;-5.78;100.00
498;BME280;39559;48.630;9.162;2023-02-11T04:52:10;99378.06;;;-5.69;100.00
498;BME280;39559;48.630;9.162;2023-02-11T04:56:29;99370.94;;;-5.43;100.00
498;BME280;39559;48.630;9.162;2023-02-11T04:58:55;99370.22;;;-5.57;100.00
498;BME280;39559;48.630;9.162;2023-02-11T05:01:21;99361.94;;;-5.54;100.00
498;BME280;39559;48.630;9.162;2023-02-11T05:03:47;99360.97;;;-5.56;100.00
498;BME280;39559;48.630;9.162;2023-02-11T05:06:12;99358.75;;;-5.67;100.00
498;BME280;39559;48.630;9.162;2023-02-11T05:08:38;99364.03;;;-5.62;100.00
498;BME280;39559;48.630;9.162;2023-02-11T05:11:04;99356.22;;;-5.67;100.00
498;BME280;39559;48.630;9.162;2023-02-11T05:13:30;99362.97;;;-5.51;100.00
498;BME280;39559;48.630;9.162;2023-02-11T05:15:56;99353.44;;;-5.38;100.00
498;BME280;39559;48.630;9.162;2023-02-11T05:20:33;99357.41;;;-5.60;100.00
498;BME280;39559;48.630;9.162;2023-02-11T05:22:58;99351.81;;;-5.54;100.00
498;BME280;39559;48.630;9.162;2023-02-11T05:25:24;99353.44;;;-5.55;100.00
498;BME280;39559;48.630;9.162;2023-02-11T05:27:49;99335.09;;;-5.51;100.00
498;BME280;39559;48.630;9.162;2023-02-11T05:30:15;99327.16;;;-5.41;100.00
498;BME280;39559;48.630;9.162;2023-02-11T05:32:40;99310.56;;;-5.01;100.00
498;BME280;39559;48.630;9.162;2023-02-11T05:35:06;99310.84;;;-4.95;100.00
498;BME280;39559;48.630;9.162;2023-02-11T05:37:32;99307.16;;;-5.02;100.00
498;BME280;39559;48.630;9.162;2023-02-11T05:39:58;99314.53;;;-4.88;100.00
498;BME280;39559;48.630;9.162;2023-02-11T05:44:36;99284.41;;;-5.18;100.00
498;BME280;39559;48.630;9.162;2023-02-11T05:47:02;99274.97;;;-5.21;100.00
498;BME280;39559;48.630;9.162;2023-02-11T05:49:27;99271.03;;;-4.97;100.00
498;BME280;39559;48.630;9.162;2023-02-11T05:51:53;99268.06;;;-4.89;100.00
498;BME280;39559;48.630;9.162;2023-02-11T05:54:18;99285.72;;;-4.72;100.00
498;BME280;39559;48.630;9.162;2023-02-11T05:56:44;99298.19;;;-4.59;100.00
498;BME280;39559;48.630;9.162;2023-02-11T05:59:12;99300.19;;;-4.70;100.00
498;BME280;39559;48.630;9.162;2023-02-11T06:01:38;99294.81;;;-5.12;100.00
498;BME280;39559;48.630;9.162;2023-02-11T06:04:03;99296.53;;;-5.29;100.00
498;BME280;39559;48.630;9.162;2023-02-11T06:08:40;99295.16;;;-5.06;100.00
498;BME280;39559;48.630;9.162;2023-02-11T06:11:05;99296.53;;;-4.94;100.00
498;BME280;39559;48.630;9.162;2023-02-11T06:13:31;99295.13;;;-4.70;100.00
498;BME280;39559;48.630;9.162;2023-02-11T06:15:58;99294.56;;;-4.64;100.00
498;BME280;39559;48.630;9.162;2023-02-11T06:18:24;99288.25;;;-4.54;100.00
498;BME280;39559;48.630;9.162;2023-02-11T06:20:50;99287.00;;;-4.45;100.00
498;BME280;39559;48.630;9.162;2023-02-11T06:23:15;99293.81;;;-4.26;100.00
498;BME280;39559;48.630;9.162;2023-02-11T06:25:41;99301.47;;;-4.24;100.00
498;BME280;39559;48.630;9.162;2023-02-11T06:28:06;99317.00;;;-4.36;100.00
498;BME280;39559;48.630;9.162;2023-02-11T06:32:43;99321.22;;;-4.54;100.00
498;BME280;39559;48.630;9.162;2023-02-11T06:35:09;99323.94;;;-4.68;100.00
498;BME280;39559;48.630;9.162;2023-02-11T06:37:34;99325.13;;;-4.43;100.00
498;BME280;39559;48.630;9.162;2023-02-11T06:39:59;99334.69;;;-4.37;100.00
498;BME280;39559;48.630;9.162;2023-02-11T06:42:25;99336.03;;;-4.26;100.00
498;BME280;39559;48.630;9.162;2023-02-11T06:44:50;99326.59;;;-4.11;100.00
498;BME280;39559;48.630;9.162;2023-02-11T06:47:16;99325.41;;;-4.37;100.00
498;BME280;39559;48.630;9.162;2023-02-11T06:49:41;99323.94;;;-4.50;100.00
498;BME280;39559;48.630;9.162;2023-02-11T06:52:07;99331.78;;;-4.45;100.00
498;BME280;39559;48.630;9.162;2023-02-11T06:56:46;99318.53;;;-4.02;100.00
498;BME280;39559;48.630;9.162;2023-02-11T06:59:17;99320.88;;;-3.87;100.00
498;BME280;39559;48.630;9.162;2023-02-11T07:01:44;99326.59;;;-3.91;100.00
498;BME280;39559;48.630;9.162;2023-02-11T07:04:09;99327.03;;;-3.82;100.00
498;BME280;39559;48.630;9.162;2023-02-11T07:06:35;99336.91;;;-3.88;100.00
498;BME280;39559;48.630;9.162;2023-02-11T07:09:03;99337.38;;;-3.77;100.00
498;BME280;39559;48.630;9.162;2023-02-11T07:11:29;99350.25;;;-3.92;100.00
498;BME280;39559;48.630;9.162;2023-02-11T07:13:59;99345.88;;;-4.14;100.00
498;BME280;39559;48.630;9.162;2023-02-11T07:16:25;99350.25;;;-4.30;100.00
498;BME280;39559;48.630;9.162;2023-02-11T07:20:50;99346.38;;;-4.03;100.00
498;BME280;39559;48.630;9.162;2023-02-11T07:23:15;99341.78;;;-3.93;100.00
498;BME280;39559;48.630;9.162;2023-02-11T07:25:41;99336.78;;;-3.72;100.00
498;BME280;39559;48.630;9.162;2023-02-11T07:28:06;99334.06;;;-3.76;100.00
498;BME280;39559;48.630;9.162;2023-02-11T07:30:32;99339.31;;;-3.72;100.00
498;BME280;39559;48.630;9.162;2023-02-11T07:32:58;99344.25;;;-3.36;100.00
498;BME280;39559;48.630;9.162;2023-02-11T07:35:23;99336.50;;;-3.39;100.00
498;BME280;39559;48.630;9.162;2023-02-11T07:37:49;99320.81;;;-3.50;100.00
498;BME280;39559;48.630;9.162;2023-02-11T07:40:14;99323.72;;;-3.40;100.00
498;BME280;39559;48.630;9.162;2023-02-11T07:44:53;99318.91;;;-2.94;100.00
498;BME280;39559;48.630;9.162;2023-02-11T07:47:19;99317.91;;;-2.97;100.00
498;BME280;39559;48.630;9.162;2023-02-11T07:49:44;99330.38;;;-3.03;100.00
498;BME280;39559;48.630;9.162;2023-02-11T07:52:10;99337.84;;;-3.06;100.00
498;BME280;39559;48.630;9.162;2023-02-11T07:54:35;99357.75;;;-3.37;100.00
498;BME280;39559;48.630;9.162;2023-02-11T07:57:01;99350.88;;;-3.39;100.00
498;BME280;39559;48.630;9.162;2023-02-11T07:59:26;99355.06;;;-3.20;100.00
498;BME280;39559;48.630;9.162;2023-02-11T08:01:52;99344.19;;;-3.18;100.00
498;BME280;39559;48.630;9.162;2023-02-11T08:04:18;99334.00;;;-2.97;100.00
498;BME280;39559;48.630;9.162;2023-02-11T08:08:57;99323.84;;;-2.55;100.00
498;BME280;39559;48.630;9.162;2023-02-11T08:11:24;99319.75;;;-2.28;100.00
498;BME280;39559;48.630;9.162;2023-02-11T08:13:51;99315.41;;;-2.08;100.00
498;BME280;39559;48.630;9.162;2023-02-11T08:16:22;99311.13;;;-1.87;100.00
498;BME280;39559;48.630;9.162;2023-02-11T08:18:48;99306.22;;;-1.58;100.00
498;BME280;39559;48.630;9.162;2023-02-11T08:21:14;99306.47;;;-1.75;100.00
498;BME280;39559;48.630;9.162;2023-02-11T08:23:41;99303.66;;;-1.58;100.00
498;BME280;39559;48.630;9.162;2023-02-11T08:26:11;99288.41;;;-1.32;100.00
498;BME280;39559;48.630;9.162;2023-02-11T08:28:42;99294.06;;;-1.16;100.00
498;BME280;39559;48.630;9.162;2023-02-11T08:33:00;99288.44;;;-1.05;100.00
498;BME280;39559;48.630;9.162;2023-02-11T08:35:26;99298.75;;;-0.75;100.00
498;BME280;39559;48.630;9.162;2023-02-11T08:37:51;99301.50;;;-0.96;100.00
498;BME280;39559;48.630;9.162;2023-02-11T08:40:17;99311.50;;;-0.75;100.00
498;BME280;39559;48.630;9.162;2023-02-11T08:42:43;99323.25;;;-0.53;100.00
498;BME280;39559;48.630;9.162;2023-02-11T08:45:09;99322.97;;;-0.62;100.00
498;BME280;39559;48.630;9.162;2023-02-11T08:47:35;99322.56;;;-0.20;100.00
498;BME280;39559;48.630;9.162;2023-02-11T08:50:01;99322.78;;;0.16;100.00
498;BME280;39559;48.630;9.162;2023-02-11T08:52:29;99314.25;;;0.46;100.00
498;BME280;39559;48.630;9.162;2023-02-11T08:57:03;99315.00;;;0.75;100.00
498;BME280;39559;48.630;9.162;2023-02-11T08:59:32;99308.00;;;1.02;100.00
498;BME280;39559;48.630;9.162;2023-02-11T09:01:57;99308.25;;;0.77;100.00
498;BME280;39559;48.630;9.162;2023-02-11T09:04:23;99301.53;;;1.16;100.00
498;BME280;39559;48.630;9.162;2023-02-11T09:06:48;99299.03;;;1.56;100.00
498;BME280;39559;48.630;9.162;2023-02-11T09:09:14;99294.53;;;1.83;100.00
498;BME280;39559;48.630;9.162;2023-02-11T09:11:41;99295.50;;;1.88;100.00
498;BME280;39559;48.630;9.162;2023-02-11T09:14:07;99289.25;;;2.18;100.00
498;BME280;39559;48.630;9.162;2023-02-11T09:16:38;99278.59;;;2.41;100.00
498;BME280;39559;48.630;9.162;2023-02-11T09:21:08;99280.59;;;2.56;100.00
498;BME280;39559;48.630;9.162;2023-02-11T09:23:34;99290.34;;;2.75;100.00
498;BME280;39559;48.630;9.162;2023-02-11T09:26:07;99290.16;;;2.64;99.16
498;BME280;39559;48.630;9.162;2023-02-11T09:28:33;99294.78;;;2.37;97.82
498;BME280;39559;48.630;9.162;2023-02-11T09:31:06;99295.81;;;2.46;100.00
498;BME280;39559;48.630;9.162;2023-02-11T09:33:32;99290.72;;;2.98;99.97
498;BME280;39559;48.630;9.162;2023-02-11T09:36:03;99285.16;;;3.80;94.77
498;BME280;39559;48.630;9.162;2023-02-11T09:38:30;99287.38;;;4.21;94.76
498;BME280;39559;48.630;9.162;2023-02-11T09:40:55;99279.94;;;4.45;89.14
498;BME280;39559;48.630;9.162;2023-02-11T09:45:19;99274.81;;;5.46;83.26
498;BME280;39559;48.630;9.162;2023-02-11T09:47:52;99270.72;;;5.75;78.58
498;BME280;39559;48.630;9.162;2023-02-11T09:50:30;99253.78;;;6.38;73.53
498;BME280;39559;48.630;9.162;2023-02-11T09:53:04;99259.06;;;7.16;75.79
498;BME280;39559;48.630;9.162;2023-02-11T09:55:37;99260.72;;;7.68;70.69
498;BME280;39559;48.630;9.162;2023-02-11T09:58:25;99260.75;;;6.65;70.62
498;BME280;39559;48.630;9.162;2023-02-11T10:12:24;99281.41;;;6.66;68.21
498;BME280;39559;48.630;9.162;2023-02-11T10:20:37;99280.50;;;7.84;64.55
498;BME280;39559;48.630;9.162;2023-02-11T10:23:16;99272.84;;;7.34;66.12
498;BME280;39559;48.630;9.162;2023-02-11T10:25:45;99274.53;;;6.95;66.32
498;BME280;39559;48.630;9.162;2023-02-11T10:28:16;99270.13;;;6.37;65.51
498;BME280;39559;48.630;9.162;2023-02-11T10:33:23;99280.84;;;5.51;70.18
498;BME280;39559;48.630;9.162;2023-02-11T10:35:50;99266.56;;;5.99;70.76
498;BME280;39559;48.630;9.162;2023-02-11T10:38:16;99276.81;;;5.94;70.54
498;BME280;39559;48.630;9.162;2023-02-11T10:40:42;99272.63;;;6.06;69.58
498;BME280;39559;48.630;9.162;2023-02-11T10:43:12;99265.88;;;6.48;68.85
498;BME280;39559;48.630;9.162;2023-02-11T10:45:59;99273.63;;;6.48;69.41
498;BME280;39559;48.630;9.162;2023-02-11T10:48:45;99272.72;;;6.35;68.44
498;BME280;39559;48.630;9.162;2023-02-11T10:51:21;99279.53;;;6.18;69.18
498;BME280;39559;48.630;9.162;2023-02-11T10:57:18;99256.38;;;6.30;69.94
498;BME280;39559;48.630;9.162;2023-02-11T10:59:44;99259.75;;;6.20;67.14
498;BME280;39559;48.630;9.162;2023-02-11T11:02:28;99256.28;;;6.14;68.02
498;BME280;39559;48.630;9.162;2023-02-11T11:04:58;99252.16;;;7.30;66.43
498;BME280;39559;48.630;9.162;2023-02-11T11:07:26;99246.00;;;7.84;63.26
498;BME280;39559;48.630;9.162;2023-02-11T11:17:36;99222.31;;;8.70;59.04
498;BME280;39559;48.630;9.162;2023-02-11T11:21:32;99230.53;;;9.21;58.42
498;BME280;39559;48.630;9.162;2023-02-11T11:24:01;99226.09;;;9.36;58.00
498;BME280;39559;48.630;9.162;2023-02-11T11:26:39;99227.00;;;9.30;55.73
498;BME280;39559;48.630;9.162;2023-02-11T11:29:13;99223.91;;;8.90;56.29
498;BME280;39559;48.630;9.162;2023-02-11T11:31:48;99225.91;;;9.54;56.25
498;BME280;39559;48.630;9.162;2023-02-11T11:34:22;99215.03;;;9.99;53.62
498;BME280;39559;48.630;9.162;2023-02-11T11:36:50;99222.44;;;10.28;53.01
498;BME280;39559;48.630;9.162;2023-02-11T11:39:20;99214.16;;;10.64;52.82
498;BME280;39559;48.630;9.162;2023-02-11T11:41:53;99212.94;;;11.39;51.85
498;BME280;39559;48.630;9.162;2023-02-11T11:45:25;99220.63;;;11.45;48.75
498;BME280;39559;48.630;9.162;2023-02-11T11:50:44;99209.16;;;12.43;49.75
498;BME280;39559;48.630;9.162;2023-02-11T11:53:22;99205.28;;;13.30;46.49
498;BME280;39559;48.630;9.162;2023-02-11T11:55:58;99195.59;;;14.29;44.44
498;BME280;39559;48.630;9.162;2023-02-11T11:58:27;99195.78;;;15.32;42.67
498;BME280;39559;48.630;9.162;2023-02-11T12:09:37;99174.97;;;16.69;40.90
498;BME280;39559;48.630;9.162;2023-02-11T12:20:49;99179.25;;;15.32;40.41
498;BME280;39559;48.630;9.162;2023-02-11T12:26:21;99192.69;;;13.47;44.41
498;BME280;39559;48.630;9.162;2023-02-11T12:57:35;99187.03;;;10.24;51.65
498;BME280;39559;48.630;9.162;2023-02-11T13:00:18;99179.00;;;11.45;49.73
498;BME280;39559;48.630;9.162;2023-02-11T13:03:11;99177.56;;;11.29;48.69
498;BME280;39559;48.630;9.162;2023-02-11T13:05:51;99169.81;;;10.76;50.30
498;BME280;39559;48.630;9.162;2023-02-11T13:10:48;99170.00;;;9.27;53.47
498;BME280;39559;48.630;9.162;2023-02-11T13:13:33;99169.44;;;8.97;54.89
498;BME280;39559;48.630;9.162;2023-02-11T13:16:04;99167.16;;;9.53;53.93
498;BME280;39559;48.630;9.162;2023-02-11T13:24:18;99155.53;;;9.82;51.40
498;BME280;39559;48.630;9.162;2023-02-11T13:27:06;99154.00;;;9.66;53.07
498;BME280;39559;48.630;9.162;2023-02-11T13:32:20;99146.91;;;10.45;51.34
498;BME280;39559;48.630;9.162;2023-02-11T13:39:56;99142.66;;;10.41;51.92
498;BME280;39559;48.630;9.162;2023-02-11T13:42:22;99144.09;;;11.10;50.00
498;BME280;39559;48.630;9.162;2023-02-11T13:45:46;99158.56;;;10.75;52.51
498;BME280;39559;48.630;9.162;2023-02-11T13:48:23;99160.09;;;10.86;53.11
498;BME280;39559;48.630;9.162;2023-02-11T13:50:56;99158.38;;;10.29;53.45
498;BME280;39559;48.630;9.162;2023-02-11T13:53:23;99159.56;;;10.67;53.29
498;BME280;39559;48.630;9.162;2023-02-11T13:55:51;99153.22;;;10.85;52.17
498;BME280;39559;48.630;9.162;2023-02-11T14:00:53;99161.00;;;10.27;53.52
498;BME280;39559;48.630;9.162;2023-02-11T14:09:37;99158.78;;;9.25;56.13
498;BME280;39559;48.630;9.162;2023-02-11T14:12:23;99151.19;;;9.07;56.48
498;BME280;39559;48.630;9.162;2023-02-11T14:14:58;99149.13;;;8.43;58.18
498;BME280;39559;48.630;9.162;2023-02-11T14:17:29;99153.25;;;8.68;57.19
498;BME280;39559;48.630;9.162;2023-02-11T14:19:56;99154.13;;;8.70;56.95
498;BME280;39559;48.630;9.162;2023-02-11T14:22:26;99156.00;;;8.51;59.09
498;BME280;39559;48.630;9.162;2023-02-11T14:25:01;99158.56;;;8.54;59.46
498;BME280;39559;48.630;9.162;2023-02-11T14:27:30;99157.72;;;8.49;59.86
498;BME280;39559;48.630;9.162;2023-02-11T14:33:56;99152.59;;;8.41;59.76
498;BME280;39559;48.630;9.162;2023-02-11T14:39:53;99155.19;;;8.36;60.74
498;BME280;39559;48.630;9.162;2023-02-11T14:42:23;99156.00;;;8.48;61.73
498;BME280;39559;48.630;9.162;2023-02-11T14:44:53;99147.31;;;8.58;60.97
498;BME280;39559;48.630;9.162;2023-02-11T14:47:28;99150.63;;;8.74;60.22
498;BME280;39559;48.630;9.162;2023-02-11T14:50:00;99141.66;;;9.12;59.64
498;BME280;39559;48.630;9.162;2023-02-11T14:52:28;99155.75;;;8.78;60.82
498;BME280;39559;48.630;9.162;2023-02-11T14:57:25;99164.69;;;8.34;62.75
498;BME280;39559;48.630;9.162;2023-02-11T14:59:55;99169.19;;;8.06;63.21
498;BME280;39559;48.630;9.162;2023-02-11T15:02:35;99175.28;;;7.93;63.97
498;BME280;39559;48.630;9.162;2023-02-11T15:05:22;99175.41;;;7.60;64.44
498;BME280;39559;48.630;9.162;2023-02-11T15:07:56;99174.59;;;7.38;66.84
498;BME280;39559;48.630;9.162;2023-02-11T15:10:40;99185.84;;;7.23;67.02
498;BME280;39559;48.630;9.162;2023-02-11T15:13:07;99184.97;;;7.29;68.09
498;BME280;39559;48.630;9.162;2023-02-11T15:15:38;99183.28;;;7.08;68.09
498;BME280;39559;48.630;9.162;2023-02-11T15:18:05;99189.31;;;7.07;68.24
498;BME280;39559;48.630;9.162;2023-02-11T15:21:28;99183.31;;;6.96;69.60
498;BME280;39559;48.630;9.162;2023-02-11T15:24:03;99185.03;;;6.84;70.79
498;BME280;39559;48.630;9.162;2023-02-11T15:26:32;99176.41;;;6.70;72.36
498;BME280;39559;48.630;9.162;2023-02-11T15:28:58;99189.31;;;6.68;73.36
498;BME280;39559;48.630;9.162;2023-02-11T15:31:26;99184.16;;;6.85;72.58
498;BME280;39559;48.630;9.162;2023-02-11T15:33:52;99189.31;;;6.78;72.75
498;BME280;39559;48.630;9.162;2023-02-11T15:36:21;99185.03;;;6.72;73.73
498;BME280;39559;48.630;9.162;2023-02-11T15:41:56;99179.00;;;6.75;72.76
498;BME280;39559;48.630;9.162;2023-02-11T15:45:29;99181.56;;;6.51;75.28
498;BME280;39559;48.630;9.162;2023-02-11T15:50:33;99196.19;;;6.43;77.33
498;BME280;39559;48.630;9.162;2023-02-11T15:53:37;99197.00;;;6.22;78.11
498;BME280;39559;48.630;9.162;2023-02-11T15:57:01;99196.00;;;5.91;79.54
498;BME280;39559;48.630;9.162;2023-02-11T15:59:19;99199.34;;;5.62;83.30
498;BME280;39559;48.630;9.162;2023-02-11T16:01:47;99201.81;;;5.48;84.39
498;BME280;39559;48.630;9.162;2023-02-11T16:04:20;99198.13;;;5.06;86.50
498;BME280;39559;48.630;9.162;2023-02-11T16:09:23;99202.78;;;4.46;91.25
498;BME280;39559;48.630;9.162;2023-02-11T16:14:22;99203.88;;;3.89;95.57
498;BME280;39559;48.630;9.162;2023-02-11T16:16:54;99213.16;;;3.77;95.34
498;BME280;39559;48.630;9.162;2023-02-11T16:19:22;99217.25;;;3.63;97.30
498;BME280;39559;48.630;9.162;2023-02-11T16:21:49;99222.88;;;3.36;100.00
498;BME280;39559;48.630;9.162;2023-02-11T16:24:26;99228.91;;;3.39;100.00
498;BME280;39559;48.630;9.162;2023-02-11T16:26:55;99233.69;;;3.16;100.00
498;BME280;39559;48.630;9.162;2023-02-11T16:29:27;99233.84;;;3.25;100.00
498;BME280;39559;48.630;9.162;2023-02-11T16:33:24;99248.78;;;2.96;100.00
498;BME280;39559;48.630;9.162;2023-02-11T16:35:49;99246.41;;;3.07;100.00
498;BME280;39559;48.630;9.162;2023-02-11T16:38:16;99252.50;;;3.14;100.00
498;BME280;39559;48.630;9.162;2023-02-11T16:40:42;99256.56;;;3.01;100.00
498;BME280;39559;48.630;9.162;2023-02-11T16:43:09;99255.84;;;3.69;100.00
498;BME280;39559;48.630;9.162;2023-02-11T16:45:38;99254.75;;;3.50;100.00
498;BME280;39559;48.630;9.162;2023-02-11T16:48:08;99268.97;;;3.88;100.00
498;BME280;39559;48.630;9.162;2023-02-11T16:50:34;99266.63;;;4.06;100.00
498;BME280;39559;48.630;9.162;2023-02-11T16:53:00;99274.34;;;4.06;100.00
498;BME280;39559;48.630;9.162;2023-02-11T16:57:26;99279.56;;;4.12;100.00